createdAt,value
2024-02-05T00:00:59.535Z,18.23
2024-02-05T00:03:26.219Z,19.02
2024-02-05T00:05:52.790Z,17.10
2024-02-05T00:08:19.374Z,16.67
2024-02-05T00:10:47.343Z,17.23
2024-02-05T00:13:14.742Z,17.23
2024-02-05T00:15:41.328Z,22.55
2024-02-05T00:18:07.955Z,21.42
2024-02-05T00:20:35.129Z,23.23
2024-02-05T00:23:01.839Z,17.08
2024-02-05T00:25:28.640Z,24.87
2024-02-05T00:27:55.169Z,20.38
2024-02-05T00:30:21.642Z,19.45
2024-02-05T00:32:48.134Z,16.10
2024-02-05T00:35:14.829Z,20.63
2024-02-05T00:37:41.915Z,22.90
2024-02-05T00:40:08.983Z,20.52
2024-02-05T00:42:35.549Z,17.42
2024-02-05T00:45:02.128Z,21.65
2024-02-05T00:47:28.723Z,17.67
2024-02-05T00:49:55.307Z,19.05
2024-02-05T00:52:21.944Z,25.23
2024-02-05T00:54:48.521Z,22.90
2024-02-05T00:57:15.220Z,17.17
2024-02-05T00:59:41.712Z,11.57
2024-02-05T01:02:08.402Z,14.38
2024-02-05T01:04:35.496Z,20.10
2024-02-05T01:07:02.489Z,22.48
2024-02-05T01:09:29.238Z,21.45
2024-02-05T01:11:55.849Z,19.02
2024-02-05T01:14:22.761Z,13.38
2024-02-05T01:16:49.268Z,26.48
2024-02-05T01:19:16.140Z,22.98
2024-02-05T01:21:42.730Z,19.38
2024-02-05T01:24:09.308Z,22.90
2024-02-05T01:26:35.788Z,16.60
2024-02-05T01:29:02.309Z,18.15
2024-02-05T01:31:28.828Z,18.10
2024-02-05T01:33:55.679Z,14.00
2024-02-05T01:36:22.168Z,20.77
2024-02-05T01:38:49.722Z,19.13
2024-02-05T01:41:16.273Z,22.05
2024-02-05T01:43:43.458Z,17.95
2024-02-05T01:46:17.345Z,16.35
2024-02-05T01:48:45.679Z,17.60
2024-02-05T01:51:16.058Z,17.87
2024-02-05T01:53:42.749Z,16.70
2024-02-05T01:56:11.132Z,17.33
2024-02-05T01:58:39.545Z,23.30
2024-02-05T02:01:11.090Z,23.30
2024-02-05T02:03:41.524Z,19.00
2024-02-05T02:06:11.986Z,18.25
2024-02-05T02:08:42.561Z,23.05
2024-02-05T02:11:09.101Z,19.65
2024-02-05T02:13:35.586Z,19.40
2024-02-05T02:16:06.727Z,12.80
2024-02-05T02:18:36.062Z,15.90
2024-02-05T02:21:05.642Z,16.95
2024-02-05T02:23:34.728Z,20.10
2024-02-05T02:26:01.948Z,16.35
2024-02-05T02:28:28.650Z,17.08
2024-02-05T02:30:56.114Z,22.13
2024-02-05T02:33:44.196Z,16.02
2024-02-05T02:36:12.271Z,19.80
2024-02-05T02:38:52.312Z,16.90
2024-02-05T02:41:32.905Z,16.90
2024-02-05T02:44:03.534Z,21.90
2024-02-05T02:46:30.688Z,27.27
2024-02-05T02:48:58.237Z,16.80
2024-02-05T02:51:25.383Z,16.83
2024-02-05T02:53:51.851Z,21.77
2024-02-05T02:56:18.450Z,23.13
2024-02-05T02:58:44.921Z,22.17
2024-02-05T03:01:11.484Z,19.42
2024-02-05T03:03:38.180Z,19.65
2024-02-05T03:06:05.252Z,21.60
2024-02-05T03:08:31.880Z,22.85
2024-02-05T03:10:58.396Z,17.05
2024-02-05T03:13:24.995Z,24.60
2024-02-05T03:15:52.023Z,15.70
2024-02-05T03:18:18.975Z,13.90
2024-02-05T03:20:46.103Z,11.25
2024-02-05T03:23:13.235Z,17.15
2024-02-05T03:25:40.749Z,12.35
2024-02-05T03:28:09.142Z,15.38
2024-02-05T03:30:37.033Z,30.00
2024-02-05T03:33:06.079Z,24.92
2024-02-05T03:35:33.019Z,17.10
2024-02-05T03:37:59.563Z,24.20
2024-02-05T03:40:26.441Z,17.27
2024-02-05T03:42:54.001Z,17.20
2024-02-05T03:45:21.423Z,21.38
2024-02-05T03:47:48.418Z,18.13
2024-02-05T03:50:15.359Z,14.95
2024-02-05T03:52:46.949Z,15.85
2024-02-05T03:55:15.936Z,21.00
2024-02-05T03:57:44.543Z,15.60
2024-02-05T04:00:12.281Z,26.38
2024-02-05T04:02:42.526Z,18.52
2024-02-05T04:05:10.166Z,17.45
2024-02-05T04:07:37.362Z,24.57
2024-02-05T04:10:04.675Z,20.50
2024-02-05T04:12:31.205Z,18.25
2024-02-05T04:14:57.839Z,18.75
2024-02-05T04:17:24.917Z,20.75
2024-02-05T04:19:52.084Z,23.50
2024-02-05T04:22:18.994Z,16.50
2024-02-05T04:24:45.596Z,22.60
2024-02-05T04:27:13.210Z,20.75
2024-02-05T04:29:41.797Z,20.85
2024-02-05T04:32:08.502Z,19.60
2024-02-05T04:34:35.064Z,21.35
2024-02-05T04:37:01.778Z,17.10
2024-02-05T04:39:28.295Z,21.60
2024-02-05T04:41:54.772Z,20.63
2024-02-05T04:44:21.228Z,23.20
2024-02-05T04:46:47.682Z,17.95
2024-02-05T04:49:14.392Z,16.08
2024-02-05T04:51:41.128Z,15.48
2024-02-05T04:54:07.988Z,22.63
2024-02-05T04:56:34.459Z,21.60
2024-02-05T04:59:00.990Z,26.45
2024-02-05T05:01:27.640Z,22.67
2024-02-05T05:03:54.193Z,22.40
2024-02-05T05:06:20.792Z,15.73
2024-02-05T05:08:47.260Z,22.43
2024-02-05T05:11:23.662Z,20.30
2024-02-05T05:13:50.837Z,18.08
2024-02-05T05:16:18.593Z,15.77
2024-02-05T05:18:45.326Z,16.98
2024-02-05T05:21:12.401Z,22.13
2024-02-05T05:23:38.988Z,21.05
2024-02-05T05:26:06.657Z,26.20
2024-02-05T05:28:33.995Z,18.73
2024-02-05T05:31:01.326Z,21.90
2024-02-05T05:33:27.861Z,26.87
2024-02-05T05:35:54.429Z,21.50
2024-02-05T05:38:21.092Z,21.13
2024-02-05T05:40:47.798Z,18.58
2024-02-05T05:43:14.372Z,27.83
2024-02-05T05:45:41.220Z,22.13
2024-02-05T05:48:08.580Z,18.48
2024-02-05T05:50:35.805Z,24.60
2024-02-05T05:53:02.539Z,29.23
2024-02-05T05:55:29.187Z,21.65
2024-02-05T05:57:55.806Z,21.20
2024-02-05T06:00:25.014Z,21.38
2024-02-05T06:02:51.673Z,23.00
2024-02-05T06:05:18.231Z,18.92
2024-02-05T06:07:46.117Z,19.70
2024-02-05T06:10:12.874Z,17.90
2024-02-05T06:12:41.273Z,17.83
2024-02-05T06:15:10.914Z,22.52
2024-02-05T06:17:37.674Z,23.10
2024-02-05T06:20:07.165Z,16.25
2024-02-05T06:22:37.020Z,25.87
2024-02-05T06:25:04.135Z,23.42
2024-02-05T06:27:30.745Z,18.80
2024-02-05T06:29:57.613Z,27.98
2024-02-05T06:32:24.134Z,20.10
2024-02-05T06:34:53.943Z,18.33
2024-02-05T06:37:20.616Z,17.45
2024-02-05T06:39:47.303Z,15.80
2024-02-05T06:42:13.943Z,20.10
2024-02-05T06:44:40.498Z,17.60
2024-02-05T06:47:07.116Z,19.07
2024-02-05T06:49:33.661Z,22.05
2024-02-05T06:52:00.554Z,21.15
2024-02-05T06:54:27.035Z,19.75
2024-02-05T06:56:53.511Z,21.52
2024-02-05T06:59:20.047Z,23.23
2024-02-05T07:01:46.667Z,26.17
2024-02-05T07:04:13.323Z,21.98
2024-02-05T07:06:40.126Z,22.63
2024-02-05T07:09:07.032Z,22.60
2024-02-05T07:11:33.499Z,13.63
2024-02-05T07:13:59.988Z,14.30
2024-02-05T07:16:26.635Z,21.38
2024-02-05T07:18:53.403Z,21.13
2024-02-05T07:21:20.571Z,23.02
2024-02-05T07:23:47.051Z,23.37
2024-02-05T07:26:13.542Z,26.83
2024-02-05T07:28:40.833Z,23.40
2024-02-05T07:31:07.325Z,21.05
2024-02-05T07:33:34.541Z,24.83
2024-02-05T07:36:01.079Z,17.40
2024-02-05T07:38:27.810Z,19.00
2024-02-05T07:40:54.347Z,24.10
2024-02-05T07:43:20.918Z,31.75
2024-02-05T07:45:47.564Z,25.73
2024-02-05T07:48:14.244Z,20.03
2024-02-05T07:50:40.806Z,24.60
2024-02-05T07:53:07.658Z,16.88
2024-02-05T07:55:34.981Z,24.20
2024-02-05T07:58:01.678Z,19.88
2024-02-05T08:00:28.198Z,20.83
2024-02-05T08:02:54.732Z,17.73
2024-02-05T08:05:21.866Z,23.55
2024-02-05T08:07:49.160Z,18.88
2024-02-05T08:10:15.946Z,19.33
2024-02-05T08:12:44.070Z,29.40
2024-02-05T08:15:10.672Z,18.50
2024-02-05T08:17:37.340Z,17.65
2024-02-05T08:20:04.522Z,20.55
2024-02-05T08:22:32.208Z,17.35
2024-02-05T08:24:58.967Z,20.00
2024-02-05T08:27:25.482Z,23.92
2024-02-05T08:29:51.965Z,21.35
2024-02-05T08:32:19.057Z,20.65
2024-02-05T08:34:45.776Z,24.55
2024-02-05T08:37:12.367Z,19.02
2024-02-05T08:39:38.962Z,15.30
2024-02-05T08:42:15.893Z,41.70
2024-02-05T08:44:49.741Z,29.77
2024-02-05T08:47:16.247Z,27.45
2024-02-05T08:49:46.945Z,17.50
2024-02-05T08:52:16.930Z,20.92
2024-02-05T08:54:43.795Z,20.48
2024-02-05T08:57:10.415Z,24.05
2024-02-05T08:59:36.906Z,20.75
2024-02-05T09:02:03.938Z,22.40
2024-02-05T09:04:30.918Z,23.23
2024-02-05T09:06:57.744Z,20.92
2024-02-05T09:09:24.424Z,19.67
2024-02-05T09:12:01.140Z,19.50
2024-02-05T09:14:34.259Z,22.87
2024-02-05T09:17:00.831Z,21.13
2024-02-05T09:19:27.456Z,26.40
2024-02-05T09:21:55.998Z,19.65
2024-02-05T09:24:24.283Z,18.30
2024-02-05T09:26:51.114Z,20.10
2024-02-05T09:29:18.374Z,17.67
2024-02-05T09:31:45.097Z,16.20
2024-02-05T09:34:15.089Z,22.77
2024-02-05T09:36:42.108Z,23.77
2024-02-05T09:39:08.701Z,30.53
2024-02-05T09:41:35.849Z,21.65
2024-02-05T09:44:04.369Z,21.38
2024-02-05T09:46:34.088Z,21.73
2024-02-05T09:49:04.494Z,16.63
2024-02-05T09:51:33.715Z,26.17
2024-02-05T09:54:10.867Z,18.55
2024-02-05T09:56:45.471Z,25.00
2024-02-05T09:59:12.595Z,23.42
2024-02-05T10:01:40.383Z,20.23
2024-02-05T10:04:10.772Z,21.30
2024-02-05T10:06:40.932Z,24.92
2024-02-05T10:09:11.284Z,29.92
2024-02-05T10:11:46.929Z,26.05
2024-02-05T10:14:13.869Z,21.70
2024-02-05T10:16:44.448Z,22.10
2024-02-05T10:19:11.151Z,22.05
2024-02-05T10:21:38.012Z,28.38
2024-02-05T10:24:04.619Z,19.58
2024-02-05T10:26:31.954Z,30.67
2024-02-05T10:29:09.031Z,18.77
2024-02-05T10:31:45.308Z,27.27
2024-02-05T10:34:16.616Z,19.08
2024-02-05T10:36:43.362Z,18.63
2024-02-05T10:39:10.344Z,22.65
2024-02-05T10:41:39.837Z,16.50
2024-02-05T10:44:06.607Z,19.08
2024-02-05T10:46:33.720Z,25.23
2024-02-05T10:49:02.362Z,23.63
2024-02-05T10:51:29.210Z,23.98
2024-02-05T10:53:56.942Z,18.00
2024-02-05T10:56:25.002Z,19.63
2024-02-05T10:58:56.343Z,17.42
2024-02-05T11:01:24.971Z,19.88
2024-02-05T11:03:56.146Z,19.25
2024-02-05T11:06:23.979Z,28.27
2024-02-05T11:08:51.239Z,23.30
2024-02-05T11:11:17.916Z,15.68
2024-02-05T11:13:53.116Z,21.70
2024-02-05T11:16:20.340Z,24.58
2024-02-05T11:18:49.388Z,20.77
2024-02-05T11:21:22.428Z,17.20
2024-02-05T11:23:50.508Z,19.88
2024-02-05T11:26:17.861Z,26.13
2024-02-05T11:28:50.318Z,15.18
2024-02-05T11:31:19.058Z,23.13
2024-02-05T11:33:45.696Z,22.25
2024-02-05T11:36:15.637Z,19.88
2024-02-05T11:38:43.275Z,21.52
2024-02-05T11:41:11.026Z,17.67
2024-02-05T11:43:37.587Z,18.43
2024-02-05T11:46:04.452Z,31.40
2024-02-05T11:48:33.378Z,15.25
2024-02-05T11:51:02.803Z,18.30
2024-02-05T11:53:29.423Z,18.90
2024-02-05T11:55:55.943Z,20.07
2024-02-05T11:58:22.488Z,19.38
2024-02-05T12:00:49.520Z,17.00
2024-02-05T12:03:16.409Z,11.65
2024-02-05T12:05:43.139Z,24.50
2024-02-05T12:08:10.175Z,22.03
2024-02-05T12:10:38.080Z,26.23
2024-02-05T12:13:04.978Z,17.98
2024-02-05T12:15:32.434Z,21.80
2024-02-05T12:18:02.614Z,17.42
2024-02-05T12:20:30.938Z,19.03
2024-02-05T12:22:57.824Z,23.75
2024-02-05T12:25:34.241Z,19.15
2024-02-05T12:28:05.678Z,16.63
2024-02-05T12:30:32.265Z,18.42
2024-02-05T12:32:58.897Z,18.13
2024-02-05T12:35:25.719Z,22.95
2024-02-05T12:37:54.265Z,25.77
2024-02-05T12:40:21.662Z,22.30
2024-02-05T12:42:48.299Z,16.85
2024-02-05T12:45:17.039Z,26.63
2024-02-05T12:47:44.370Z,12.35
2024-02-05T12:50:11.301Z,20.30
2024-02-05T12:52:38.800Z,21.42
2024-02-05T12:55:08.095Z,17.65
2024-02-05T12:57:35.437Z,16.10
2024-02-05T13:00:02.833Z,26.02
2024-02-05T13:02:30.773Z,16.35
2024-02-05T13:04:57.619Z,14.68
2024-02-05T13:07:24.577Z,20.08
2024-02-05T13:09:51.409Z,16.30
2024-02-05T13:12:18.611Z,20.52
2024-02-05T13:14:45.969Z,16.70
2024-02-05T13:17:13.157Z,17.83
2024-02-05T13:19:40.141Z,17.60
2024-02-05T13:22:07.541Z,19.33
2024-02-05T13:24:34.405Z,13.70
2024-02-05T13:27:00.930Z,19.88
2024-02-05T13:29:27.595Z,17.23
2024-02-05T13:31:54.510Z,21.05
2024-02-05T13:34:28.054Z,19.53
2024-02-05T13:36:55.335Z,16.33
2024-02-05T13:39:24.030Z,14.35
2024-02-05T13:41:50.728Z,19.83
2024-02-05T13:44:20.177Z,22.10
2024-02-05T13:46:46.956Z,16.85
2024-02-05T13:49:13.657Z,18.33
2024-02-05T13:51:40.238Z,14.02
2024-02-05T13:54:07.815Z,18.52
2024-02-05T13:56:35.132Z,22.38
2024-02-05T13:59:02.188Z,17.13
2024-02-05T14:01:28.946Z,19.88
2024-02-05T14:03:55.909Z,18.33
2024-02-05T14:06:23.624Z,20.35
2024-02-05T14:08:50.323Z,14.18
2024-02-05T14:11:17.404Z,17.43
2024-02-05T14:13:44.587Z,19.52
2024-02-05T14:16:11.377Z,10.38
2024-02-05T14:18:37.987Z,20.55
2024-02-05T14:21:05.117Z,17.25
2024-02-05T14:23:31.675Z,19.27
2024-02-05T14:25:58.166Z,14.13
2024-02-05T14:28:24.719Z,20.45
2024-02-05T14:30:51.386Z,16.83
2024-02-05T14:33:18.315Z,21.33
2024-02-05T14:35:44.942Z,16.43
2024-02-05T14:38:11.479Z,11.55
2024-02-05T14:40:38.099Z,18.75
2024-02-05T14:43:05.422Z,11.38
2024-02-05T14:45:32.023Z,12.93
2024-02-05T14:47:58.636Z,11.83
2024-02-05T14:50:25.795Z,13.70
2024-02-05T14:52:52.374Z,13.90
2024-02-05T14:55:18.935Z,14.30
2024-02-05T14:57:46.950Z,10.80
2024-02-05T15:00:15.129Z,17.00
2024-02-05T15:02:41.957Z,17.33
2024-02-05T15:05:12.929Z,12.32
2024-02-05T15:07:40.780Z,12.55
2024-02-05T15:10:12.345Z,16.85
2024-02-05T15:12:40.482Z,13.00
2024-02-05T15:15:09.394Z,13.30
2024-02-05T15:17:36.429Z,13.35
2024-02-05T15:20:06.996Z,10.40
2024-02-05T15:22:34.040Z,14.50
2024-02-05T15:25:00.710Z,13.05
2024-02-05T15:27:30.186Z,9.73
2024-02-05T15:29:56.696Z,7.68
2024-02-05T15:32:26.869Z,11.70
2024-02-05T15:34:53.749Z,13.90
2024-02-05T15:37:21.549Z,7.57
2024-02-05T15:39:48.971Z,10.35
2024-02-05T15:42:15.727Z,11.27
2024-02-05T15:44:43.239Z,6.82
2024-02-05T15:47:09.850Z,8.73
2024-02-05T15:49:36.494Z,6.00
2024-02-05T15:52:03.871Z,7.93
2024-02-05T15:54:31.523Z,9.15
2024-02-05T15:56:57.984Z,11.75
2024-02-05T15:59:25.084Z,14.23
2024-02-05T16:01:52.543Z,10.93
2024-02-05T16:04:19.927Z,16.35
2024-02-05T16:06:46.706Z,10.13
2024-02-05T16:09:13.426Z,8.13
2024-02-05T16:11:39.910Z,7.38
2024-02-05T16:14:11.447Z,8.13
2024-02-05T16:16:39.204Z,6.88
2024-02-05T16:19:08.649Z,8.18
2024-02-05T16:21:36.786Z,11.05
2024-02-05T16:24:04.537Z,11.10
2024-02-05T16:26:31.478Z,11.60
2024-02-05T16:28:57.962Z,9.95
2024-02-05T16:31:25.218Z,8.68
2024-02-05T16:33:52.128Z,8.70
2024-02-05T16:36:18.841Z,8.07
2024-02-05T16:38:47.434Z,10.10
2024-02-05T16:41:14.304Z,8.20
2024-02-05T16:43:41.017Z,4.18
2024-02-05T16:46:13.469Z,8.52
2024-02-05T16:48:40.715Z,4.05
2024-02-05T16:51:07.557Z,8.33
2024-02-05T16:53:34.929Z,7.15
2024-02-05T16:56:01.409Z,3.28
2024-02-05T16:58:28.014Z,3.47
2024-02-05T17:00:54.687Z,6.90
2024-02-05T17:03:21.276Z,7.13
2024-02-05T17:05:47.751Z,5.63
2024-02-05T17:08:14.277Z,5.43
2024-02-05T17:10:40.811Z,4.97
2024-02-05T17:13:07.670Z,4.15
2024-02-05T17:15:35.023Z,3.97
2024-02-05T17:18:03.562Z,6.03
2024-02-05T17:20:30.778Z,6.78
2024-02-05T17:22:57.433Z,4.82
2024-02-05T17:25:23.959Z,5.28
2024-02-05T17:27:50.483Z,6.67
2024-02-05T17:30:17.094Z,2.03
2024-02-05T17:32:43.678Z,4.78
2024-02-05T17:35:10.938Z,2.60
2024-02-05T17:37:37.669Z,5.93
2024-02-05T17:40:04.569Z,3.20
2024-02-05T17:42:31.882Z,2.58
2024-02-05T17:44:58.548Z,4.95
2024-02-05T17:47:25.329Z,4.30
2024-02-05T17:49:52.560Z,2.58
2024-02-05T17:52:19.260Z,4.80
2024-02-05T17:54:45.900Z,6.03
2024-02-05T17:57:13.708Z,6.22
2024-02-05T17:59:40.208Z,3.65
2024-02-05T18:02:06.869Z,1.65
2024-02-05T18:04:33.606Z,2.10
2024-02-05T18:07:01.135Z,3.60
2024-02-05T18:09:28.658Z,4.50
2024-02-05T18:11:55.218Z,3.13
2024-02-05T18:14:21.810Z,3.92
2024-02-05T18:16:48.307Z,3.50
2024-02-05T18:19:14.813Z,3.20
2024-02-05T18:21:41.800Z,3.72
2024-02-05T18:24:08.377Z,4.20
2024-02-05T18:26:34.829Z,3.95
2024-02-05T18:29:02.457Z,3.50
2024-02-05T18:31:29.121Z,4.68
2024-02-05T18:33:56.430Z,2.22
2024-02-05T18:36:22.957Z,2.78
2024-02-05T18:38:49.764Z,4.07
2024-02-05T18:41:16.419Z,4.30
2024-02-05T18:43:43.068Z,6.88
2024-02-05T18:46:09.742Z,5.85
2024-02-05T18:48:36.364Z,5.22
2024-02-05T18:51:04.200Z,2.35
2024-02-05T18:53:30.937Z,4.10
2024-02-05T18:55:58.944Z,5.82
2024-02-05T18:58:25.568Z,5.93
2024-02-05T19:00:52.529Z,5.03
2024-02-05T19:03:19.433Z,6.38
2024-02-05T19:05:46.175Z,3.90
2024-02-05T19:08:12.930Z,7.18
2024-02-05T19:10:39.690Z,4.28
2024-02-05T19:13:06.418Z,6.57
2024-02-05T19:15:33.497Z,4.82
2024-02-05T19:18:01.576Z,8.40
2024-02-05T19:20:29.130Z,4.07
2024-02-05T19:22:56.374Z,3.60
2024-02-05T19:25:23.032Z,3.58
2024-02-05T19:27:49.759Z,5.90
2024-02-05T19:30:18.949Z,6.20
2024-02-05T19:32:45.751Z,6.50
2024-02-05T19:35:12.499Z,7.75
2024-02-05T19:37:39.907Z,33.20
2024-02-05T19:40:11.429Z,21.92
2024-02-05T19:42:37.958Z,22.10
2024-02-05T19:45:04.662Z,32.33
2024-02-05T19:47:31.154Z,11.52
2024-02-05T19:49:57.766Z,16.50
2024-02-05T19:52:24.353Z,9.45
2024-02-05T19:54:52.253Z,5.33
2024-02-05T19:57:18.815Z,5.90
2024-02-05T19:59:45.325Z,5.03
2024-02-05T20:02:11.833Z,6.28
2024-02-05T20:04:38.443Z,8.38
2024-02-05T20:07:07.987Z,6.57
2024-02-05T20:09:35.802Z,5.80
2024-02-05T20:12:05.441Z,5.43
2024-02-05T20:14:33.762Z,5.13
2024-02-05T20:17:02.616Z,5.70
2024-02-05T20:19:29.493Z,7.30
2024-02-05T20:21:55.979Z,3.80
2024-02-05T20:24:22.475Z,5.45
2024-02-05T20:26:48.966Z,7.20
2024-02-05T20:29:15.461Z,4.50
2024-02-05T20:31:42.226Z,11.57
2024-02-05T20:34:08.944Z,6.20
2024-02-05T20:36:35.497Z,5.38
2024-02-05T20:39:03.989Z,8.60
2024-02-05T20:41:30.484Z,7.63
2024-02-05T20:43:56.959Z,10.10
2024-02-05T20:46:23.544Z,6.68
2024-02-05T20:48:50.393Z,6.47
2024-02-05T20:51:17.589Z,7.80
2024-02-05T20:53:44.743Z,11.45
2024-02-05T20:56:11.309Z,4.60
2024-02-05T20:58:37.854Z,3.92
2024-02-05T21:01:04.657Z,5.95
2024-02-05T21:03:34.188Z,5.00
2024-02-05T21:06:02.775Z,6.93
2024-02-05T21:08:29.476Z,10.27
2024-02-05T21:10:56.113Z,3.95
2024-02-05T21:13:22.682Z,5.80
2024-02-05T21:15:49.278Z,20.35
2024-02-05T21:18:15.975Z,4.60
2024-02-05T21:20:42.534Z,10.50
2024-02-05T21:23:09.071Z,7.30
2024-02-05T21:25:35.589Z,7.82
2024-02-05T21:28:02.283Z,9.63
2024-02-05T21:30:31.173Z,7.70
2024-02-05T21:32:59.299Z,9.07
2024-02-05T21:35:25.909Z,11.25
2024-02-05T21:37:52.674Z,8.57
2024-02-05T21:40:19.222Z,9.98
2024-02-05T21:42:45.717Z,6.65
2024-02-05T21:45:12.309Z,6.77
2024-02-05T21:47:38.972Z,9.85
2024-02-05T21:50:05.971Z,8.32
2024-02-05T21:52:32.549Z,9.75
2024-02-05T21:54:59.077Z,7.40
2024-02-05T21:57:26.161Z,9.67
2024-02-05T21:59:52.708Z,9.07
2024-02-05T22:02:20.014Z,9.98
2024-02-05T22:04:46.960Z,6.05
2024-02-05T22:07:13.685Z,10.23
2024-02-05T22:09:40.272Z,11.97
2024-02-05T22:12:06.889Z,11.57
2024-02-05T22:14:33.351Z,10.38
2024-02-05T22:16:59.812Z,8.80
2024-02-05T22:19:26.957Z,7.82
2024-02-05T22:21:55.871Z,7.93
2024-02-05T22:24:22.389Z,6.65
2024-02-05T22:26:49.049Z,8.23
2024-02-05T22:29:15.501Z,12.68
2024-02-05T22:31:42.113Z,8.95
2024-02-05T22:34:13.323Z,14.73
2024-02-05T22:36:46.372Z,8.75
2024-02-05T22:39:13.164Z,12.68
2024-02-05T22:41:39.614Z,10.38
2024-02-05T22:44:06.301Z,10.82
2024-02-05T22:46:33.318Z,9.33
2024-02-05T22:48:59.985Z,11.75
2024-02-05T22:51:26.657Z,14.68
2024-02-05T22:53:53.211Z,12.18
2024-02-05T22:56:20.908Z,9.43
2024-02-05T22:58:47.471Z,9.00
2024-02-05T23:01:14.082Z,10.50
2024-02-05T23:03:40.576Z,16.30
2024-02-05T23:06:07.251Z,9.45
2024-02-05T23:08:33.775Z,11.88
2024-02-05T23:11:00.243Z,14.10
2024-02-05T23:13:26.743Z,11.40
2024-02-05T23:15:53.354Z,9.35
2024-02-05T23:18:20.132Z,9.90
2024-02-05T23:20:46.665Z,9.52
2024-02-05T23:23:13.288Z,13.70
2024-02-05T23:25:39.794Z,10.88
2024-02-05T23:28:07.292Z,13.18
2024-02-05T23:30:33.860Z,6.68
2024-02-05T23:33:02.747Z,12.82
2024-02-05T23:35:29.558Z,7.57
2024-02-05T23:37:57.596Z,16.58
2024-02-05T23:40:24.269Z,11.23
2024-02-05T23:42:50.859Z,8.20
2024-02-05T23:45:17.320Z,15.35
2024-02-05T23:47:43.817Z,8.23
2024-02-05T23:50:11.204Z,11.00
2024-02-05T23:52:39.306Z,9.63
2024-02-05T23:55:07.975Z,9.25
2024-02-05T23:57:34.708Z,10.68
